CYUL/YUL METAR and TAF weather

Enter ICAO airport designator
Station Type Date Time Source
CYUL METAR 2020/08/11 01:00 UTC NOAA

CYUL 110100Z 21011KT 15SM FEW035 SCT150 BKN180 OVC240 25/22 A2988 RMK SC1AC3AC2CI2 SLP119 DENSITY ALT 1400FT


Station Type Date Time Source
CYUL Decoded METAR 2020/08/11 01:00 UTC NOAA

Montreal / Pierre Elliot Trudeau International Airport, Que, Canada (CYUL) 45-28N 073-45W 36M
Aug 10, 2020 - 09:00 PM EDT / 2020.08.11 0100 UTC
Wind: from the SSW (210 degrees) at 13 MPH (11 KT):0
Visibility: 15 mile(s):0
Sky conditions: overcast
Temperature: 77 F (25 C)
Dew Point: 71 F (22 C)
Relative Humidity: 83%
Pressure (altimeter): 29.88 in. Hg (1011 hPa)
ob: CYUL 110100Z 21011KT 15SM FEW035 SCT150 BKN180 OVC240 25/22 A2988 RMK SC1AC3AC2CI2 SLP119 DENSITY ALT 1400FT
cycle: 1

Station Type Date Time Source
CYUL TAF 2020/08/10 22:24 UTC NOAA

TAF
AMD CYUL 102218Z 1022/1118 22012KT P6SM SCT040
TEMPO 1022/1102 P6SM -SHRA VCTS OVC040CB
FM110200 21008KT P6SM SCT040
FM111500 21012KT P6SM SCT060
RMK NXT FCST BY 110000Z

Example: see airport list